Time;durP1;ratioP1;P1;durP2;ratioP2;P2;SDS_P1;SDS_P2;PMS_P1;PMS_P2;Temp;Humidity;BMP_temperature;BMP_pressure;BME280_temperature;BME280_humidity;BME280_pressure;Samples;Min_cycle;Max_cycle;Signal;HPM_P1;HPM_P2
2023/02/24 00:01:36;;;;;;;14.27;5.93;;;;;;;2.07;100.00;94998.88;5005409;28;20049;-72
2023/02/24 00:04:13;;;;;;;12.00;5.82;;;;;;;2.08;100.00;94997.84;5001550;28;20038;-71
2023/02/24 00:06:42;;;;;;;14.57;5.30;;;;;;;2.07;100.00;95001.47;5007489;28;20065;-72
2023/02/24 00:09:11;;;;;;;15.15;5.55;;;;;;;2.05;100.00;94999.13;5010256;28;20176;-71
2023/02/24 00:11:39;;;;;;;14.20;6.28;;;;;;;2.09;100.00;94989.06;5002929;28;20137;-71
2023/02/24 00:14:07;;;;;;;13.15;5.30;;;;;;;2.10;100.00;94985.44;5009657;28;20042;-73
2023/02/24 00:16:33;;;;;;;18.95;6.10;;;;;;;2.06;100.00;94989.50;5007828;28;20038;-73
2023/02/24 00:19:00;;;;;;;14.63;5.38;;;;;;;2.07;100.00;94985.91;5007867;28;20046;-73
2023/02/24 00:21:27;;;;;;;14.40;5.78;;;;;;;2.02;100.00;94988.38;5014896;28;20038;-72
2023/02/24 00:23:53;;;;;;;13.13;5.05;;;;;;;1.97;100.00;94985.66;5006547;28;20132;-72
2023/02/24 00:26:19;;;;;;;13.77;5.35;;;;;;;1.84;100.00;94977.13;5006270;28;20042;-72
2023/02/24 00:28:45;;;;;;;14.85;5.47;;;;;;;1.80;100.00;94976.00;5008452;28;20129;-73
2023/02/24 00:31:17;;;;;;;13.82;5.82;;;;;;;1.78;100.00;94974.63;5003008;28;20054;-72
2023/02/24 00:33:45;;;;;;;10.00;5.10;;;;;;;1.75;100.00;94978.47;5003394;28;20760;-73
2023/02/24 00:36:10;;;;;;;18.25;5.38;;;;;;;1.70;100.00;94970.59;5004678;28;20038;-73
2023/02/24 00:38:37;;;;;;;13.57;5.00;;;;;;;1.65;100.00;94978.25;5004258;28;20096;-72
2023/02/24 00:41:15;;;;;;;15.23;5.93;;;;;;;1.55;100.00;94968.44;5003489;28;20050;-73
2023/02/24 00:43:48;;;;;;;12.15;5.53;;;;;;;1.50;100.00;94971.72;5008481;28;20101;-73
2023/02/24 00:46:19;;;;;;;21.10;6.35;;;;;;;1.43;100.00;94971.03;5008544;28;20643;-73
2023/02/24 00:48:47;;;;;;;15.77;5.72;;;;;;;1.36;100.00;94965.16;4999184;28;20058;-73
2023/02/24 00:51:15;;;;;;;14.27;5.38;;;;;;;1.36;100.00;94970.34;5004396;28;20097;-73
2023/02/24 00:53:42;;;;;;;13.73;5.22;;;;;;;1.30;100.00;94966.84;5002620;28;20049;-72
2023/02/24 00:56:12;;;;;;;10.45;5.10;;;;;;;1.24;100.00;94966.97;5005628;28;20095;-72
2023/02/24 00:58:38;;;;;;;12.75;4.95;;;;;;;1.21;100.00;94961.19;5005418;28;20042;-73
2023/02/24 01:01:07;;;;;;;13.15;5.40;;;;;;;1.17;100.00;94961.88;5004075;28;20077;-73
2023/02/24 01:03:33;;;;;;;16.23;5.50;;;;;;;1.16;100.00;94965.47;4999771;28;20053;-73
2023/02/24 01:06:01;;;;;;;14.35;5.05;;;;;;;1.17;100.00;94957.47;5007279;28;20046;-73
2023/02/24 01:08:28;;;;;;;16.67;5.18;;;;;;;1.13;100.00;94955.56;5007656;28;20049;-73
2023/02/24 01:13:42;;;;;;;12.80;4.90;;;;;;;1.03;100.00;94940.56;4995718;28;20043;-73
2023/02/24 01:16:08;;;;;;;11.27;5.05;;;;;;;0.99;100.00;94944.59;5007082;28;20422;-73
2023/02/24 01:18:33;;;;;;;15.32;5.32;;;;;;;1.01;100.00;94940.00;5008559;28;20410;-73
2023/02/24 01:20:59;;;;;;;11.25;5.55;;;;;;;1.02;100.00;94938.97;5009233;28;20042;-73
2023/02/24 01:23:25;;;;;;;11.68;5.30;;;;;;;1.08;100.00;94932.91;5000973;28;20038;-73
2023/02/24 01:25:52;;;;;;;16.58;5.97;;;;;;;1.15;100.00;94933.59;5009504;28;20532;-73
2023/02/24 01:28:18;;;;;;;11.52;5.55;;;;;;;1.12;100.00;94934.06;5007088;28;20038;-73
2023/02/24 01:30:43;;;;;;;12.40;5.30;;;;;;;1.09;100.00;94921.50;5004770;28;20053;-73
2023/02/24 01:33:13;;;;;;;16.08;5.70;;;;;;;1.10;100.00;94924.91;5000142;28;20041;-73
2023/02/24 01:35:39;;;;;;;11.48;5.72;;;;;;;1.02;100.00;94918.25;5009088;28;20045;-73
2023/02/24 01:38:05;;;;;;;15.18;5.60;;;;;;;1.11;100.00;94927.28;5002949;28;20046;-73
2023/02/24 01:40:32;;;;;;;20.55;6.22;;;;;;;1.12;100.00;94921.09;5007038;28;20033;-73
2023/02/24 01:42:57;;;;;;;12.05;5.50;;;;;;;1.06;100.00;94927.16;4997747;28;20046;-73
2023/02/24 01:45:34;;;;;;;12.05;5.30;;;;;;;0.99;100.00;94921.28;5007359;28;20041;-73
2023/02/24 01:48:04;;;;;;;15.40;5.32;;;;;;;1.00;100.00;94920.28;5006007;28;20033;-73
2023/02/24 01:50:32;;;;;;;14.45;5.95;;;;;;;1.02;100.00;94918.25;5006716;28;20045;-73
2023/02/24 01:53:03;;;;;;;13.65;5.80;;;;;;;1.10;100.00;94915.31;5006235;28;20057;-73
2023/02/24 01:55:36;;;;;;;13.80;5.65;;;;;;;1.12;100.00;94915.91;5006919;28;20394;-73
2023/02/24 01:58:14;;;;;;;14.80;5.95;;;;;;;1.14;100.00;94915.69;5008010;28;20088;-73
2023/02/24 02:00:46;;;;;;;14.18;5.38;;;;;;;1.11;100.00;94908.34;5011051;28;20136;-73
2023/02/24 02:03:31;;;;;;;14.07;5.32;;;;;;;0.98;100.00;94912.72;5003462;28;20449;-73
2023/02/24 02:06:01;;;;;;;11.85;5.40;;;;;;;0.85;100.00;94902.56;5011669;28;20560;-74
2023/02/24 02:08:27;;;;;;;15.95;6.35;;;;;;;0.86;100.00;94894.56;5009361;28;20045;-74
2023/02/24 02:10:57;;;;;;;12.73;6.05;;;;;;;0.78;100.00;94886.34;5009913;28;20111;-74
2023/02/24 02:13:25;;;;;;;15.25;6.10;;;;;;;0.73;100.00;94884.41;5006980;28;20038;-74
2023/02/24 02:16:16;;;;;;;12.02;5.57;;;;;;;0.63;100.00;94884.97;5010206;28;20104;-74
2023/02/24 02:19:08;;;;;;;12.85;6.13;;;;;;;0.58;100.00;94881.47;5010701;28;20483;-74
2023/02/24 02:21:50;;;;;;;12.35;5.90;;;;;;;0.61;100.00;94886.19;5002160;28;20092;-74
2023/02/24 02:24:24;;;;;;;16.48;7.18;;;;;;;0.63;100.00;94878.97;5008958;28;20053;-73
2023/02/24 02:27:22;;;;;;;15.40;6.37;;;;;;;0.51;100.00;94878.97;5009447;28;20045;-73
2023/02/24 02:30:32;;;;;;;13.05;5.30;;;;;;;0.45;100.00;94883.22;4999431;28;20284;-73
2023/02/24 02:33:26;;;;;;;15.65;5.07;;;;;;;0.48;100.00;94882.78;4927003;29;20098;-73
2023/02/24 02:36:06;;;;;;;12.87;5.47;;;;;;;0.42;100.00;94883.66;5003754;28;20125;-73
2023/02/24 02:38:37;;;;;;;14.23;5.88;;;;;;;0.31;100.00;94882.59;5005234;28;20065;-73
2023/02/24 02:41:23;;;;;;;13.80;5.20;;;;;;;0.27;100.00;94885.84;5006511;28;20041;-73
2023/02/24 02:44:01;;;;;;;17.83;6.20;;;;;;;0.17;100.00;94884.59;5001509;28;20120;-73
2023/02/24 02:46:35;;;;;;;13.65;6.13;;;;;;;0.11;100.00;94880.28;5004817;28;20042;-74
2023/02/24 02:49:22;;;;;;;15.13;6.03;;;;;;;0.10;100.00;94881.31;5003469;28;20034;-73
2023/02/24 02:51:52;;;;;;;20.02;5.80;;;;;;;0.04;100.00;94879.56;5008926;28;20660;-73
2023/02/24 02:54:36;;;;;;;21.65;6.57;;;;;;;0.09;100.00;94884.88;5004534;28;20163;-74
2023/02/24 02:57:13;;;;;;;12.90;5.50;;;;;;;0.17;100.00;94883.78;5009699;28;20049;-74
2023/02/24 02:59:48;;;;;;;16.17;5.57;;;;;;;0.07;100.00;94881.75;5003089;28;20042;-74
2023/02/24 03:02:18;;;;;;;14.55;5.70;;;;;;;-0.04;100.00;94874.72;5008790;28;20050;-74
2023/02/24 03:04:50;;;;;;;13.48;5.60;;;;;;;-0.11;100.00;94884.34;5003513;28;20513;-73
2023/02/24 03:07:18;;;;;;;15.02;6.55;;;;;;;-0.19;100.00;94878.47;5010561;28;20037;-73
2023/02/24 03:09:50;;;;;;;12.65;6.55;;;;;;;-0.06;100.00;94876.72;5008691;28;20052;-74
2023/02/24 03:12:20;;;;;;;17.38;6.30;;;;;;;-0.14;100.00;94858.91;5001450;28;20042;-74
2023/02/24 03:14:50;;;;;;;18.23;6.82;;;;;;;-0.08;100.00;94868.41;5007754;28;20034;-74
2023/02/24 03:17:21;;;;;;;19.98;6.40;;;;;;;-0.13;100.00;94870.84;5010506;28;20042;-73
2023/02/24 03:19:58;;;;;;;13.20;5.82;;;;;;;-0.13;100.00;94876.00;5001735;28;20048;-73
2023/02/24 03:22:40;;;;;;;18.17;7.00;;;;;;;-0.10;100.00;94875.56;5004483;28;20049;-73
2023/02/24 03:25:05;;;;;;;12.70;5.93;;;;;;;-0.14;100.00;94875.22;5008305;28;20100;-73
2023/02/24 03:27:47;;;;;;;14.63;5.97;;;;;;;-0.31;100.00;94869.84;5008888;28;20552;-73
2023/02/24 03:30:25;;;;;;;12.43;5.78;;;;;;;-0.31;100.00;94869.84;5005429;28;20042;-73
2023/02/24 03:33:28;;;;;;;18.27;6.95;;;;;;;-0.27;100.00;94876.16;5005164;28;20048;-74
2023/02/24 03:36:00;;;;;;;16.42;5.93;;;;;;;-0.34;100.00;94867.69;4973386;28;20129;-73
2023/02/24 03:38:31;;;;;;;12.82;6.05;;;;;;;-0.40;100.00;94869.34;5009968;28;20033;-73
2023/02/24 03:40:57;;;;;;;15.88;6.35;;;;;;;-0.43;100.00;94861.22;5000170;28;20650;-73
2023/02/24 03:43:28;;;;;;;14.40;6.50;;;;;;;-0.41;100.00;94864.41;5007110;28;20503;-74
2023/02/24 03:45:55;;;;;;;15.63;6.32;;;;;;;-0.31;100.00;94862.09;5010930;28;20486;-73
2023/02/24 03:48:23;;;;;;;17.92;6.10;;;;;;;-0.29;100.00;94867.03;5005883;28;20038;-73
2023/02/24 03:50:48;;;;;;;21.52;6.72;;;;;;;-0.23;100.00;94866.97;5004682;28;20076;-73
2023/02/24 03:53:29;;;;;;;14.70;6.32;;;;;;;-0.21;100.00;94864.94;5006305;28;20116;-73
2023/02/24 03:56:21;;;;;;;14.60;5.80;;;;;;;-0.17;100.00;94854.97;5008251;28;20042;-73
2023/02/24 03:59:08;;;;;;;15.65;5.78;;;;;;;-0.11;100.00;94855.91;5007232;28;20037;-73
2023/02/24 04:01:47;;;;;;;13.63;5.93;;;;;;;-0.23;100.00;94850.66;5002734;28;20171;-74
2023/02/24 04:04:34;;;;;;;16.13;5.72;;;;;;;-0.18;100.00;94853.38;5004178;28;20056;-73
2023/02/24 04:07:11;;;;;;;15.57;6.20;;;;;;;-0.20;100.00;94851.03;5011674;28;20034;-73
2023/02/24 04:10:08;;;;;;;20.65;6.10;;;;;;;-0.14;100.00;94843.38;5007027;28;20045;-74
2023/02/24 04:13:03;;;;;;;16.77;5.82;;;;;;;-0.04;100.00;94838.50;5004516;28;20045;-73
2023/02/24 04:15:43;;;;;;;15.80;6.60;;;;;;;0.04;100.00;94825.25;5008551;28;20048;-73
2023/02/24 04:18:16;;;;;;;13.00;6.95;;;;;;;0.00;100.00;94829.31;5009462;28;20053;-73
2023/02/24 04:20:44;;;;;;;14.90;6.78;;;;;;;0.03;100.00;94828.84;5007303;28;20038;-73
2023/02/24 04:23:15;;;;;;;16.23;6.30;;;;;;;0.11;100.00;94825.94;5006576;28;21004;-72
2023/02/24 04:25:45;;;;;;;18.70;6.30;;;;;;;0.05;100.00;94826.81;5008134;28;20489;-72
2023/02/24 04:28:12;;;;;;;19.70;6.75;;;;;;;0.10;100.00;94832.16;5007800;28;20069;-73
2023/02/24 04:30:42;;;;;;;13.70;5.80;;;;;;;0.19;100.00;94831.81;5002943;28;20524;-73
2023/02/24 04:33:08;;;;;;;16.33;6.45;;;;;;;0.20;100.00;94830.81;5004032;28;20069;-73
2023/02/24 04:35:36;;;;;;;15.13;6.70;;;;;;;0.26;100.00;94824.75;5009019;28;20042;-73
2023/02/24 04:38:03;;;;;;;15.95;6.30;;;;;;;0.23;100.00;94825.19;5006050;28;20045;-73
2023/02/24 04:40:29;;;;;;;14.60;6.35;;;;;;;0.28;100.00;94820.94;5007117;28;20489;-73
2023/02/24 04:42:55;;;;;;;14.60;6.25;;;;;;;0.33;100.00;94812.50;5004463;28;20046;-73
2023/02/24 04:45:24;;;;;;;19.83;7.25;;;;;;;0.45;100.00;94815.13;5007235;28;20038;-73
2023/02/24 04:47:54;;;;;;;16.23;6.63;;;;;;;0.55;100.00;94814.56;5007452;28;20452;-73
2023/02/24 04:50:24;;;;;;;14.90;6.95;;;;;;;0.63;100.00;94812.47;5005594;28;20053;-72
2023/02/24 04:53:06;;;;;;;18.75;7.95;;;;;;;0.77;100.00;94791.50;5001446;28;20116;-72
2023/02/24 04:55:38;;;;;;;19.35;8.23;;;;;;;0.99;100.00;94796.91;5006309;28;20038;-72
2023/02/24 04:58:05;;;;;;;18.40;7.68;;;;;;;1.17;100.00;94796.00;5004003;28;20050;-72
2023/02/24 05:00:34;;;;;;;19.35;8.60;;;;;;;1.20;100.00;94785.97;5000998;28;20034;-74
2023/02/24 05:03:02;;;;;;;20.75;8.18;;;;;;;1.46;100.00;94789.06;4997028;28;20092;-74
2023/02/24 05:05:32;;;;;;;20.00;8.65;;;;;;;1.59;100.00;94776.88;5005594;28;20057;-74
2023/02/24 05:08:07;;;;;;;30.92;9.55;;;;;;;1.83;100.00;94778.34;5007827;28;20038;-73
2023/02/24 05:10:44;;;;;;;23.75;8.90;;;;;;;2.00;100.00;94773.22;5004695;28;20084;-73
2023/02/24 05:13:26;;;;;;;27.35;9.35;;;;;;;1.99;100.00;94770.84;4997670;28;20084;-73
2023/02/24 05:15:54;;;;;;;25.88;9.15;;;;;;;2.01;100.00;94763.59;5003124;28;20045;-73
2023/02/24 05:18:22;;;;;;;20.75;9.07;;;;;;;2.02;100.00;94765.19;5001909;28;20510;-73
2023/02/24 05:23:45;;;;;;;24.17;10.18;;;;;;;1.93;100.00;94761.41;5005963;28;20046;-73
2023/02/24 05:26:15;;;;;;;21.70;9.48;;;;;;;1.67;100.00;94763.53;5006887;28;20413;-74
2023/02/24 05:28:41;;;;;;;23.67;9.40;;;;;;;1.41;100.00;94744.91;5001529;28;20394;-73
2023/02/24 05:31:16;;;;;;;22.02;9.70;;;;;;;1.32;100.00;94747.06;5007541;28;20046;-74
2023/02/24 05:33:47;;;;;;;25.08;10.18;;;;;;;1.44;100.00;94743.63;5008185;28;20101;-73
2023/02/24 05:36:17;;;;;;;28.48;9.82;;;;;;;1.34;100.00;94739.06;5010726;28;20072;-73
2023/02/24 05:38:44;;;;;;;21.77;9.13;;;;;;;1.34;100.00;94734.66;5009476;28;20064;-73
2023/02/24 05:41:16;;;;;;;27.83;10.02;;;;;;;1.30;100.00;94737.94;5008593;28;20093;-73
2023/02/24 05:43:48;;;;;;;22.67;9.45;;;;;;;1.31;100.00;94734.34;5010029;28;20537;-73
2023/02/24 05:46:26;;;;;;;27.50;9.10;;;;;;;1.30;100.00;94732.75;5010333;28;20042;-73
2023/02/24 05:48:55;;;;;;;25.85;8.98;;;;;;;1.19;100.00;94732.56;5009240;28;20057;-73
2023/02/24 05:51:35;;;;;;;18.83;8.75;;;;;;;1.20;100.00;94734.13;5002998;28;20049;-73
2023/02/24 05:54:09;;;;;;;29.45;9.80;;;;;;;1.60;100.00;94731.78;5006942;28;20034;-73
2023/02/24 05:56:37;;;;;;;;;;;;;;;1.77;100.00;94736.97;5011803;28;20769;-73
2023/02/24 05:59:07;;;;;;;29.77;10.15;;;;;;;1.82;100.00;94735.25;5009468;28;19933;-73
2023/02/24 06:01:36;;;;;;;27.85;10.80;;;;;;;1.86;100.00;94733.78;5009435;28;20045;-73
2023/02/24 06:04:05;;;;;;;25.77;9.98;;;;;;;1.90;100.00;94734.88;5006014;28;20068;-73
2023/02/24 06:06:36;;;;;;;26.55;10.65;;;;;;;1.89;100.00;94730.72;5010707;28;20042;-73
2023/02/24 06:09:09;;;;;;;35.13;11.48;;;;;;;1.89;100.00;94735.91;5009014;28;20038;-73
2023/02/24 06:11:40;;;;;;;25.77;10.20;;;;;;;2.06;100.00;94724.78;5005231;28;20049;-73
2023/02/24 06:14:06;;;;;;;27.00;9.65;;;;;;;2.09;100.00;94724.31;5007501;28;20052;-73
2023/02/24 06:16:38;;;;;;;29.83;10.05;;;;;;;2.22;100.00;94723.97;5010560;28;20038;-73
2023/02/24 06:19:04;;;;;;;28.52;9.88;;;;;;;2.31;100.00;94726.19;5009207;28;20107;-73
2023/02/24 06:21:30;;;;;;;29.67;9.75;;;;;;;2.36;100.00;94727.06;5001609;28;21703;-73
2023/02/24 06:23:57;;;;;;;34.47;10.70;;;;;;;2.37;100.00;94725.25;5007392;28;20041;-73
2023/02/24 06:26:28;;;;;;;40.95;10.52;;;;;;;2.41;100.00;94726.34;5001046;28;20390;-73
2023/02/24 06:28:58;;;;;;;28.75;9.93;;;;;;;2.46;100.00;94739.41;5006850;28;20046;-73
2023/02/24 06:31:26;;;;;;;32.40;10.57;;;;;;;2.47;100.00;94732.41;5007610;28;20041;-73
2023/02/24 06:33:52;;;;;;;25.63;9.38;;;;;;;2.60;100.00;94729.47;5008107;28;20120;-73
2023/02/24 06:36:19;;;;;;;29.65;9.40;;;;;;;2.54;100.00;94723.44;5008038;28;20041;-73
2023/02/24 06:38:45;;;;;;;27.52;9.60;;;;;;;2.39;100.00;94723.22;5005251;28;20077;-73
2023/02/24 06:41:11;;;;;;;30.33;9.88;;;;;;;2.44;100.00;94736.25;5001444;28;20418;-74
2023/02/24 06:43:38;;;;;;;23.83;9.27;;;;;;;2.43;100.00;94739.91;5005147;28;20038;-74
2023/02/24 06:46:08;;;;;;;30.98;10.40;;;;;;;2.46;100.00;94736.03;5006658;28;20037;-74
2023/02/24 06:48:33;;;;;;;28.23;9.95;;;;;;;2.53;100.00;94740.03;5009071;28;20073;-73
2023/02/24 06:51:04;;;;;;;24.92;9.05;;;;;;;2.56;100.00;94744.75;5004721;28;20038;-74
2023/02/24 06:53:33;;;;;;;33.00;10.57;;;;;;;2.54;100.00;94741.63;5006271;28;20410;-73
2023/02/24 06:56:05;;;;;;;26.25;9.68;;;;;;;2.62;100.00;94742.25;5005158;28;20343;-72
2023/02/24 06:58:31;;;;;;;26.17;9.38;;;;;;;2.51;100.00;94736.09;5004123;28;20029;-74
2023/02/24 07:00:57;;;;;;;30.55;9.13;;;;;;;2.48;100.00;94750.34;5008021;28;20049;-74
2023/02/24 07:03:38;;;;;;;22.65;9.63;;;;;;;2.48;100.00;94745.16;5008704;28;20045;-73
2023/02/24 07:06:22;;;;;;;27.52;10.05;;;;;;;2.63;100.00;94749.00;5003612;28;20053;-73
2023/02/24 07:08:48;;;;;;;29.40;9.93;;;;;;;2.69;100.00;94745.47;5005949;28;20045;-74
2023/02/24 07:11:16;;;;;;;39.72;11.20;;;;;;;2.77;100.00;94745.06;5005204;28;20043;-74
2023/02/24 07:13:43;;;;;;;26.75;10.35;;;;;;;2.86;100.00;94745.44;5007413;28;20070;-74
2023/02/24 07:16:10;;;;;;;31.23;11.23;;;;;;;2.91;100.00;94741.09;5006293;28;20046;-74
2023/02/24 07:18:39;;;;;;;28.65;10.38;;;;;;;3.01;100.00;94739.66;5004638;28;20038;-74
2023/02/24 07:21:10;;;;;;;24.92;9.32;;;;;;;3.09;100.00;94736.66;5004487;28;20060;-75
2023/02/24 07:23:40;;;;;;;26.20;9.82;;;;;;;3.12;100.00;94738.78;5008955;28;20044;-76
2023/02/24 07:26:11;;;;;;;26.20;8.82;;;;;;;3.18;100.00;94730.00;5008571;28;20165;-76
2023/02/24 07:28:39;;;;;;;25.63;9.90;;;;;;;3.28;100.00;94730.13;5003673;28;20037;-76
2023/02/24 07:31:07;;;;;;;29.23;9.45;;;;;;;3.34;100.00;94733.56;5004493;28;20169;-75
2023/02/24 07:33:35;;;;;;;23.10;8.93;;;;;;;3.41;100.00;94723.00;5017568;28;20091;-77
2023/02/24 07:36:08;;;;;;;26.35;9.43;;;;;;;3.50;100.00;94726.72;5021574;28;20042;-76
2023/02/24 07:38:38;;;;;;;20.67;9.05;;;;;;;3.68;100.00;94727.41;5008451;28;20092;-73
2023/02/24 07:41:09;;;;;;;23.42;9.07;;;;;;;3.77;100.00;94720.75;5007401;28;20049;-73
2023/02/24 07:43:36;;;;;;;29.80;9.13;;;;;;;3.85;100.00;94722.94;5005129;28;20042;-74
2023/02/24 07:46:13;;;;;;;25.08;9.27;;;;;;;3.99;100.00;94718.91;5007748;28;20042;-75
2023/02/24 07:48:40;;;;;;;18.90;7.93;;;;;;;4.15;100.00;94724.22;5009118;28;20417;-75
2023/02/24 07:51:13;;;;;;;23.70;8.25;;;;;;;4.27;100.00;94724.06;5007069;28;20057;-75
2023/02/24 07:53:39;;;;;;;22.27;8.05;;;;;;;4.47;100.00;94715.63;5007225;28;20050;-75
2023/02/24 07:56:12;;;;;;;18.90;8.00;;;;;;;4.61;100.00;94713.38;5007922;28;20456;-75
2023/02/24 07:58:49;;;;;;;25.52;7.95;;;;;;;4.67;100.00;94720.97;5001554;28;20053;-75
2023/02/24 08:01:23;;;;;;;25.65;7.80;;;;;;;4.75;100.00;94713.72;5007862;28;20046;-75
2023/02/24 08:03:51;;;;;;;19.52;7.35;;;;;;;4.83;100.00;94710.66;5004086;28;20145;-76
2023/02/24 08:06:26;;;;;;;21.83;7.28;;;;;;;4.89;100.00;94714.84;5008720;28;20046;-76
2023/02/24 08:08:57;;;;;;;23.77;7.47;;;;;;;4.98;100.00;94717.75;5008987;28;20038;-76
2023/02/24 08:11:34;;;;;;;26.38;7.35;;;;;;;5.05;100.00;94707.09;5005431;28;20553;-75
2023/02/24 08:14:01;;;;;;;15.48;6.28;;;;;;;4.93;100.00;94699.47;5008192;28;20038;-75
2023/02/24 08:16:38;;;;;;;15.95;6.97;;;;;;;5.14;100.00;94705.56;5007943;28;20037;-75
2023/02/24 08:19:19;;;;;;;14.73;7.20;;;;;;;5.12;100.00;94694.63;5004467;28;20416;-76
2023/02/24 08:21:51;;;;;;;18.27;6.82;;;;;;;5.01;100.00;94699.78;5004067;28;20046;-76
2023/02/24 08:24:22;;;;;;;19.85;6.95;;;;;;;5.09;100.00;94692.53;5006794;28;20076;-76
2023/02/24 08:27:04;;;;;;;14.68;6.70;;;;;;;5.12;100.00;94686.78;5008306;28;20092;-76
2023/02/24 08:29:30;;;;;;;19.10;6.57;;;;;;;5.16;100.00;94688.63;5005796;28;20057;-74
2023/02/24 08:31:57;;;;;;;20.23;7.25;;;;;;;5.18;100.00;94690.97;5005523;28;20070;-74
2023/02/24 08:34:26;;;;;;;15.65;6.70;;;;;;;5.40;100.00;94682.19;5000503;28;20038;-74
2023/02/24 08:36:54;;;;;;;13.40;5.85;;;;;;;5.58;100.00;94676.50;5006559;28;20579;-75
2023/02/24 08:39:21;;;;;;;16.38;5.47;;;;;;;5.60;100.00;94671.78;5004056;28;20100;-75
2023/02/24 08:41:50;;;;;;;12.32;5.53;;;;;;;5.70;100.00;94677.06;5001650;28;20130;-75
2023/02/24 08:44:20;;;;;;;14.60;5.72;;;;;;;5.77;100.00;94671.56;5009014;28;20050;-76
2023/02/24 08:46:48;;;;;;;14.00;5.78;;;;;;;5.75;100.00;94665.03;5004714;28;20048;-75
2023/02/24 08:49:16;;;;;;;15.57;6.07;;;;;;;5.80;100.00;94659.84;5007640;28;20549;-75
2023/02/24 08:51:46;;;;;;;16.80;5.35;;;;;;;6.00;100.00;94662.47;5022197;28;20038;-75
2023/02/24 08:54:18;;;;;;;11.05;5.05;;;;;;;6.14;100.00;94651.53;5006216;28;20048;-75
2023/02/24 08:56:48;;;;;;;11.77;5.82;;;;;;;6.08;100.00;94650.75;5002160;28;20049;-75
2023/02/24 08:59:36;;;;;;;11.73;5.63;;;;;;;6.22;100.00;94654.41;5004646;28;20425;-75
2023/02/24 09:02:23;;;;;;;12.27;5.70;;;;;;;6.30;100.00;94647.84;5007806;28;20534;-75
2023/02/24 09:05:06;;;;;;;8.57;4.97;;;;;;;6.46;100.00;94645.22;5004111;28;20042;-75
2023/02/24 09:07:40;;;;;;;15.27;6.03;;;;;;;6.73;100.00;94650.91;5010409;28;20403;-76
2023/02/24 09:10:18;;;;;;;14.52;5.72;;;;;;;6.85;100.00;94642.00;5011062;28;20037;-75
2023/02/24 09:12:45;;;;;;;10.63;5.93;;;;;;;6.93;100.00;94644.06;5008063;28;20046;-75
2023/02/24 09:15:14;;;;;;;13.43;6.30;;;;;;;7.07;100.00;94645.06;5011362;28;20077;-75
2023/02/24 09:23:01;;;;;;;13.85;6.32;;;;;;;7.48;100.00;94632.81;5010046;28;20038;-76
2023/02/24 09:25:39;;;;;;;13.48;7.32;;;;;;;7.56;100.00;94621.78;5008602;28;20050;-76
2023/02/24 09:28:23;;;;;;;18.50;7.28;;;;;;;7.42;100.00;94624.97;5010227;28;20049;-76
2023/02/24 09:31:03;;;;;;;18.83;7.05;;;;;;;7.62;100.00;94623.31;5011091;28;20045;-76
2023/02/24 09:33:40;;;;;;;17.02;7.25;;;;;;;7.67;100.00;94618.06;5010734;28;20414;-76
2023/02/24 09:36:26;;;;;;;25.05;7.50;;;;;;;7.52;100.00;94620.75;5010538;28;20050;-76
2023/02/24 09:44:35;;;;;;;18.52;7.45;;;;;;;7.98;100.00;94602.09;5012204;28;20038;-76
2023/02/24 09:47:18;;;;;;;18.70;8.05;;;;;;;7.95;100.00;94600.81;5009129;28;20113;-76
2023/02/24 09:49:57;;;;;;;13.90;7.38;;;;;;;7.86;100.00;94596.41;5011327;28;20041;-76
2023/02/24 09:52:38;;;;;;;16.15;7.47;;;;;;;8.05;100.00;94593.94;5006263;28;20103;-75
2023/02/24 09:55:23;;;;;;;20.95;8.32;;;;;;;8.08;100.00;94588.91;5014558;28;20559;-76
2023/02/24 10:01:19;;;;;;;22.80;9.98;;;;;;;8.17;100.00;94580.44;5005420;28;20046;-74
2023/02/24 10:04:05;;;;;;;23.13;9.73;;;;;;;8.43;100.00;94579.16;5001690;28;20038;-74
2023/02/24 10:06:37;;;;;;;22.30;9.85;;;;;;;8.47;100.00;94574.94;5030970;28;20021;-76
2023/02/24 10:09:33;;;;;;;28.58;10.88;;;;;;;8.23;100.00;94574.09;5034016;28;20057;-74
2023/02/24 10:12:05;;;;;;;23.27;10.63;;;;;;;8.23;100.00;94572.28;5033462;28;20037;-73
2023/02/24 10:14:52;;;;;;;23.08;9.85;;;;;;;8.41;100.00;94565.53;5034603;28;20045;-74
2023/02/24 10:17:23;;;;;;;27.52;10.60;;;;;;;9.42;100.00;94555.91;5030376;28;20075;-74
2023/02/24 10:19:59;;;;;;;26.30;9.65;;;;;;;10.38;100.00;94553.88;5037160;28;20065;-74
2023/02/24 10:22:39;;;;;;;30.45;10.82;;;;;;;10.75;100.00;94552.16;5031487;28;20049;-74
2023/02/24 10:25:43;;;;;;;20.67;10.35;;;;;;;10.55;100.00;94546.19;5038045;28;20037;-74
2023/02/24 10:28:34;;;;;;;26.33;9.77;;;;;;;12.11;100.00;94542.56;5035081;28;20046;-74
2023/02/24 10:31:34;;;;;;;20.85;9.95;;;;;;;11.34;100.00;94540.94;5010971;28;20307;-76
2023/02/24 10:34:06;;;;;;;26.70;10.48;;;;;;;11.14;100.00;94535.03;5003893;28;20056;-76
2023/02/24 10:36:35;;;;;;;28.13;10.40;;;;;;;11.05;100.00;94534.19;5011601;28;20041;-76
2023/02/24 10:39:14;;;;;;;24.88;11.05;;;;;;;11.43;100.00;94528.59;5011985;28;20038;-76
2023/02/24 10:41:55;;;;;;;20.08;10.07;;;;;;;11.44;100.00;94530.16;5008438;28;20507;-76
2023/02/24 10:44:34;;;;;;;27.90;11.05;;;;;;;11.37;100.00;94524.53;5007667;28;20042;-76
2023/02/24 10:47:11;;;;;;;27.33;11.95;;;;;;;11.32;100.00;94527.28;5010703;28;20494;-76
2023/02/24 10:49:58;;;;;;;24.45;11.18;;;;;;;10.45;100.00;94517.47;5009264;28;20092;-76
2023/02/24 10:52:36;;;;;;;31.67;11.48;;;;;;;10.66;100.00;94517.06;5006748;28;20041;-76
2023/02/24 10:55:38;;;;;;;34.47;11.85;;;;;;;11.06;100.00;94509.38;5006255;28;20038;-76
2023/02/24 10:58:05;;;;;;;30.35;10.57;;;;;;;11.34;100.00;94506.69;5004886;28;20142;-76
2023/02/24 11:00:59;;;;;;;26.33;10.40;;;;;;;11.15;100.00;94502.34;5009491;28;20041;-76
2023/02/24 11:03:42;;;;;;;28.48;11.15;;;;;;;11.27;100.00;94499.97;5005003;28;22428;-76
2023/02/24 11:09:18;;;;;;;28.00;11.40;;;;;;;12.21;100.00;94499.34;5009471;28;20053;-76
2023/02/24 11:17:25;;;;;;;26.42;11.48;;;;;;;13.10;100.00;94470.19;5008408;28;20472;-76
2023/02/24 11:19:59;;;;;;;26.83;9.90;;;;;;;13.02;100.00;94463.03;4998884;28;21627;-76
2023/02/24 11:22:31;;;;;;;25.38;9.32;;;;;;;12.34;100.00;94471.31;5010394;28;20041;-76
2023/02/24 11:25:04;;;;;;;23.20;9.80;;;;;;;12.42;100.00;94462.63;5007477;28;20056;-76
2023/02/24 11:27:30;;;;;;;24.00;10.15;;;;;;;12.47;100.00;94459.09;5000237;28;20545;-76
2023/02/24 11:30:24;;;;;;;23.55;9.82;;;;;;;11.46;100.00;94453.47;5003863;28;20070;-76
2023/02/24 11:33:11;;;;;;;29.30;9.80;;;;;;;11.19;100.00;94445.41;5008646;28;20038;-76
2023/02/24 11:35:45;;;;;;;21.63;9.65;;;;;;;11.20;100.00;94446.94;5006221;28;20049;-76
2023/02/24 11:38:26;;;;;;;22.83;9.98;;;;;;;10.97;100.00;94440.09;5023062;28;20057;-76
2023/02/24 11:41:02;;;;;;;22.15;10.05;;;;;;;10.77;100.00;94428.94;5009018;28;20045;-75
2023/02/24 11:43:30;;;;;;;20.83;9.57;;;;;;;11.15;100.00;94433.91;5007312;28;20497;-76
2023/02/24 11:46:04;;;;;;;21.48;9.43;;;;;;;11.10;100.00;94420.84;5007795;28;20050;-76
2023/02/24 11:48:35;;;;;;;22.40;8.90;;;;;;;10.94;100.00;94411.75;5009199;28;20037;-76
2023/02/24 11:51:17;;;;;;;21.55;8.38;;;;;;;10.89;100.00;94410.78;5007311;28;20095;-76
2023/02/24 11:53:54;;;;;;;17.48;8.30;;;;;;;10.90;100.00;94404.44;5007275;28;20034;-76
2023/02/24 11:56:30;;;;;;;22.65;8.63;;;;;;;10.97;100.00;94401.38;5006464;28;20529;-76
2023/02/24 11:58:56;;;;;;;18.48;8.00;;;;;;;10.68;100.00;94396.53;5007270;28;20038;-76
2023/02/24 12:01:29;;;;;;;20.33;8.00;;;;;;;10.38;100.00;94390.84;5002752;28;20537;-76
2023/02/24 12:04:09;;;;;;;22.80;7.57;;;;;;;10.38;100.00;94386.34;5004396;28;20042;-76
2023/02/24 12:06:58;;;;;;;21.38;7.22;;;;;;;10.42;100.00;94386.53;5005650;28;20286;-72
2023/02/24 12:09:31;;;;;;;25.50;7.55;;;;;;;10.33;100.00;94377.75;5008841;28;20553;-72
2023/02/24 12:12:03;;;;;;;24.08;8.05;;;;;;;10.22;100.00;94377.97;5004922;28;20062;-74
2023/02/24 12:14:38;;;;;;;19.45;7.80;;;;;;;10.17;100.00;94374.66;5005323;28;20054;-74
2023/02/24 12:17:16;;;;;;;;;;;;;;;10.29;100.00;94367.06;5008957;28;20362;-74
2023/02/24 12:19:53;;;;;;;16.73;6.95;;;;;;;10.24;100.00;94359.25;5004332;28;19922;-75